Tuesday, February 20, 2018, 10:40 AM EST
Back to Local

KACK, Nantucket Memorial Airport

Location: Nantucket, MA, United States Lat: 41.25
Local Time: 10:40 AM EST (15:40 GMT) Lon: -70.067
Time Zone: US/Eastern Elev: 49 ft

Show me the last for .
Show Decoded

2018-02-20 09:53 METAR KACK 201453Z 23013KT 1/4SM R24/1800FT FG VV002 08/08 A3035 RMK AO2 SLP275
                 T00830083 50002 $ =
2018-02-20 08:53 METAR KACK 201353Z 22011KT 1/4SM R24/1400V1600FT FG VV002 08/08 A3035 RMK AO2
                 SLP276 T00780078 $ =
2018-02-20 07:53 METAR KACK 201253Z 23012KT 1/4SM R24/1600V1800FT FG VV002 08/08 A3035 RMK AO2
                 SLP276 T00780078 $ =
2018-02-20 06:53 METAR KACK 201153Z 23012KT 1/4SM R24/2000V2200FT FG VV002 07/07 A3034 RMK AO2
                 SLP273 60001 70006 T00720072 10089 20072 51009 $ =
2018-02-20 06:37 METAR KACK 201137Z 24014KT 1/2SM R24/2000V2200FT FG VV002 07/07 A3033 RMK AO2
                 T00720072 $ =
2018-02-20 06:18 METAR KACK 201118Z 22013KT 1/2SM R24/2200V2400FT FG VV002 07/07 A3033 RMK AO2
                 T00720072 $ =
2018-02-20 06:01 METAR KACK 201101Z 23011KT 1/2SM R24/2000V2200FT FG VV002 07/07 A3033 RMK AO2
                 T00720072 $ =
2018-02-20 05:53 METAR KACK 201053Z 23011KT 1/2SM R24/2000V2400FT FG VV002 07/07 A3033 RMK AO2
                 RAE01 SLP270 P0000 T00720072 $ =
2018-02-20 04:53 METAR KACK 200953Z AUTO 23013KT 1/2SM R24/2600V2800FT -RA FG VV002 08/08 A3032
                 RMK AO2 RAB40 SLP268 P0000 T00830083 TSNO $ =
2018-02-20 04:22 METAR KACK 200922Z AUTO 21015KT 3/4SM R24/3000V4000FT BR VV002 08/08 A3031 RMK
                 AO2 T00830083 TSNO $ =
2018-02-20 04:03 METAR KACK 200903Z AUTO 21016KT 1 1/2SM R24/5500VP6000FT BR OVC002 09/09 A3031
                 RMK AO2 T00890089 TSNO $ =
2018-02-20 03:53 METAR KACK 200853Z AUTO 21018G24KT 2SM BR OVC002 09/09 A3031 RMK AO2 SLP263
                 P0001 60001 T00890089 56013 TSNO $ =
2018-02-20 03:32 METAR KACK 200832Z AUTO 21016KT 4SM BR BKN004 OVC009 09/09 A3031 RMK AO2 CIG
                 003V007 P0001 T00890089 TSNO $ =
2018-02-20 03:22 METAR KACK 200822Z AUTO 20016KT 5SM BR OVC007 09/09 A3031 RMK AO2 CIG 004V012
                 P0001 T00890089 TSNO $ =
2018-02-20 02:53 METAR KACK 200753Z AUTO 21015KT 6SM BR OVC010 09/09 A3031 RMK AO2 RAE03 SLP265
                 P0000 T00890089 TSNO $ =
2018-02-20 02:49 METAR KACK 200749Z AUTO 21015KT 6SM BR OVC010 08/08 A3032 RMK AO2 RAE03 CIG
                 009V012 P0000 TSNO $ =
2018-02-20 02:29 METAR KACK 200729Z AUTO 21011KT 4SM BR BKN009 OVC013 08/08 A3033 RMK AO2 RAE03
                 P0000 T00780078 TSNO $ =
2018-02-20 02:19 METAR KACK 200719Z AUTO 20012KT 6SM BR BKN011 OVC016 08/08 A3033 RMK AO2 RAE03
                 P0000 T00780078 TSNO $ =
2018-02-20 01:53 METAR KACK 200653Z AUTO 21012KT 7SM -RA OVC015 07/07 A3035 RMK AO2 RAB34 SLP276
                 P0000 T00720072 TSNO $ =
2018-02-20 01:49 METAR KACK 200649Z AUTO 20011KT 6SM -RA BR OVC013 07/07 A3035 RMK AO2 RAB34
                 P0000 TSNO $ =
2018-02-20 00:53 METAR KACK 200553Z AUTO 21006KT 8SM OVC023 07/07 A3037 RMK AO2 RAE48 SLP283
                 P0001 60005 T00720072 10072 20067 56012 TSNO $ =
2018-02-20 00:04 METAR KACK 200504Z AUTO 19010KT 8SM -RA OVC029 07/07 A3037 RMK AO2 P0000
                 T00720072 TSNO $ =
2018-02-19 23:53 METAR KACK 200453Z AUTO 20009KT 8SM -RA OVC030 07/07 A3037 RMK AO2 RAB04 SLP285
                 P0002 T00720072 400831033 TSNO $ =
2018-02-19 22:53 METAR KACK 200353Z AUTO 21008KT 9SM OVC038 07/07 A3040 RMK AO2 RAB12E41 SLP293
                 P0000 T00720072 TSNO $ =
2018-02-19 21:53 METAR KACK 200253Z AUTO 19012KT 8SM OVC038 07/07 A3040 RMK AO2 RAE40 SLP295
                 P0001 60002 T00720072 56009 TSNO $ =
2018-02-19 20:53 METAR KACK 200153Z 18011KT 7SM -RA OVC036 07/07 A3041 RMK AO2 RAE25B43 SLP296
                 P0001 T00720072 $ =
2018-02-19 19:53 METAR KACK 200053Z 18011KT 9SM -RA OVC045 07/07 A3042 RMK AO2 RAB42 SLP299 P0000
                 T00720067 $ =
2018-02-19 18:53 METAR KACK 192353Z 19010KT 10SM BKN050 OVC060 07/06 A3043 RMK AO2 SLP304
                 T00720061 10083 20061 58002 $ =
2018-02-19 17:53 METAR KACK 192253Z 20013KT 10SM OVC060 07/06 A3044 RMK AO2 SLP306 T00670061 $ =
2018-02-19 16:53 METAR KACK 192153Z 17012KT 10SM OVC090 07/06 A3044 RMK AO2 SLP307 T00670056 $ =
2018-02-19 15:53 METAR KACK 192053Z 17012KT 10SM SCT043 SCT050 07/05 A3044 RMK AO2 SLP306
                 T00720050 56022 $ =
2018-02-19 14:53 METAR KACK 191953Z 16014KT 10SM FEW042 SCT050 SCT110 07/04 A3044 RMK AO2 SLP307
                 T00720044 $ =
2018-02-19 13:53 METAR KACK 191853Z 16012KT 10SM SCT043 SCT050 08/05 A3046 RMK AO2 SLP314
                 T00830050 $ =
2018-02-19 12:53 METAR KACK 191753Z 17012KT 10SM SCT049 08/04 A3050 RMK AO2 SLP327 T00780039
                 10083 20033 58027 $ =
2018-02-19 11:53 METAR KACK 191653Z 16013KT 10SM SCT048 07/04 A3052 RMK AO2 SLP335 T00720039 $ =
2018-02-19 10:53 METAR KACK 191553Z 16010KT 10SM CLR 07/03 A3057 RMK AO2 SLP351 T00720033 $ =

Support USWX by starting your Amazon purchase here.